createdAt,value
2018-12-14T00:01:20.037Z,19.35
2018-12-14T00:03:49.093Z,21.25
2018-12-14T00:06:30.669Z,16.00
2018-12-14T00:08:59.876Z,17.35
2018-12-14T00:11:45.507Z,19.85
2018-12-14T00:14:12.348Z,17.00
2018-12-14T00:16:53.571Z,17.80
2018-12-14T00:19:23.334Z,17.62
2018-12-14T00:22:04.897Z,17.92
2018-12-14T00:24:33.957Z,17.87
2018-12-14T00:27:15.717Z,16.37
2018-12-14T00:29:44.921Z,21.57
2018-12-14T00:32:26.561Z,16.20
2018-12-14T00:34:55.503Z,19.10
2018-12-14T00:37:36.717Z,16.85
2018-12-14T00:40:05.793Z,19.57
2018-12-14T00:42:46.989Z,15.43
2018-12-14T00:45:17.765Z,21.15
2018-12-14T00:47:58.986Z,18.32
2018-12-14T00:50:27.842Z,18.92
2018-12-14T00:53:09.029Z,17.02
2018-12-14T00:55:38.309Z,15.72
2018-12-14T00:58:19.541Z,18.17
2018-12-14T01:00:49.317Z,18.77
2018-12-14T01:03:30.726Z,16.32
2018-12-14T01:05:59.885Z,20.65
2018-12-14T01:08:41.091Z,19.80
2018-12-14T01:11:10.186Z,19.57
2018-12-14T01:13:51.468Z,18.98
2018-12-14T01:16:20.330Z,17.65
2018-12-14T01:19:01.558Z,18.57
2018-12-14T01:21:30.429Z,16.10
2018-12-14T01:24:11.741Z,16.95
2018-12-14T01:26:40.629Z,22.58
2018-12-14T01:29:21.821Z,20.37
2018-12-14T01:31:50.683Z,20.10
2018-12-14T01:34:31.987Z,20.10
2018-12-14T01:37:00.853Z,17.80
2018-12-14T01:39:42.055Z,17.45
2018-12-14T01:42:12.798Z,16.10
2018-12-14T01:44:54.054Z,18.57
2018-12-14T01:47:22.900Z,16.52
2018-12-14T01:50:05.447Z,19.42
2018-12-14T01:52:34.678Z,17.55
2018-12-14T01:55:15.962Z,20.82
2018-12-14T01:57:46.566Z,16.10
2018-12-14T02:00:29.063Z,14.30
2018-12-14T02:02:57.930Z,14.85
2018-12-14T02:05:39.127Z,21.73
2018-12-14T02:08:08.095Z,17.10
2018-12-14T02:10:49.314Z,17.85
2018-12-14T02:13:18.179Z,17.32
2018-12-14T02:15:59.386Z,19.45
2018-12-14T02:18:28.235Z,18.50
2018-12-14T02:21:09.429Z,18.17
2018-12-14T02:23:40.190Z,19.12
2018-12-14T02:26:21.437Z,20.52
2018-12-14T02:28:50.382Z,20.25
2018-12-14T02:31:31.570Z,18.40
2018-12-14T02:34:00.414Z,20.60
2018-12-14T02:36:41.625Z,18.25
2018-12-14T02:39:10.510Z,20.97
2018-12-14T02:41:51.715Z,24.63
2018-12-14T02:44:20.572Z,17.80
2018-12-14T02:47:01.892Z,20.30
2018-12-14T02:49:32.141Z,20.48
2018-12-14T02:52:13.330Z,21.25
2018-12-14T02:54:42.162Z,19.70
2018-12-14T02:57:23.371Z,25.15
2018-12-14T02:59:52.206Z,18.23
2018-12-14T03:02:33.766Z,19.60
2018-12-14T03:05:02.695Z,16.20
2018-12-14T03:07:43.941Z,17.17
2018-12-14T03:10:12.892Z,22.35
2018-12-14T03:12:54.101Z,19.62
2018-12-14T03:15:22.944Z,21.62
2018-12-14T03:18:04.147Z,19.23
2018-12-14T03:20:33.028Z,21.23
2018-12-14T03:23:14.218Z,20.05
2018-12-14T03:25:43.429Z,21.20
2018-12-14T03:28:24.669Z,16.10
2018-12-14T03:30:53.522Z,20.68
2018-12-14T03:33:34.818Z,19.23
2018-12-14T03:36:03.778Z,18.30
2018-12-14T03:38:45.162Z,20.57
2018-12-14T03:41:14.026Z,18.45
2018-12-14T03:43:55.233Z,17.82
2018-12-14T03:46:24.093Z,20.17
2018-12-14T03:49:05.306Z,18.20
2018-12-14T03:51:36.070Z,19.90
2018-12-14T03:54:17.373Z,19.12
2018-12-14T03:56:46.374Z,15.58
2018-12-14T03:59:29.828Z,21.33
2018-12-14T04:01:58.684Z,20.65
2018-12-14T04:04:39.950Z,21.62
2018-12-14T04:07:08.843Z,19.10
2018-12-14T04:09:50.058Z,20.32
2018-12-14T04:12:18.934Z,20.35
2018-12-14T04:15:00.188Z,19.30
2018-12-14T04:17:29.041Z,24.60
2018-12-14T04:20:10.286Z,24.90
2018-12-14T04:22:39.149Z,21.48
2018-12-14T04:25:20.457Z,20.97
2018-12-14T04:27:49.298Z,25.70
2018-12-14T04:30:30.509Z,26.55
2018-12-14T04:32:59.370Z,22.87
2018-12-14T04:35:40.928Z,24.57
2018-12-14T04:38:09.785Z,24.37
2018-12-14T04:40:51.042Z,24.57
2018-12-14T04:43:19.897Z,21.95
2018-12-14T04:46:01.074Z,26.93
2018-12-14T04:48:30.238Z,28.47
2018-12-14T04:51:11.467Z,24.35
2018-12-14T04:53:40.310Z,29.70
2018-12-14T04:56:21.566Z,35.03
2018-12-14T04:58:50.438Z,28.95
2018-12-14T05:01:31.645Z,31.25
2018-12-14T05:04:00.523Z,29.67
2018-12-14T05:06:41.877Z,25.20
2018-12-14T05:09:10.834Z,29.23
2018-12-14T05:11:52.017Z,28.10
2018-12-14T05:14:21.018Z,25.62
2018-12-14T05:17:02.226Z,34.05
2018-12-14T05:19:31.817Z,27.13
2018-12-14T05:22:13.078Z,31.20
2018-12-14T05:24:41.928Z,30.15
2018-12-14T05:27:23.257Z,25.60
2018-12-14T05:29:52.565Z,32.00
2018-12-14T05:32:34.005Z,33.28
2018-12-14T05:35:03.104Z,25.82
2018-12-14T05:37:44.341Z,29.82
2018-12-14T05:40:15.381Z,29.77
2018-12-14T05:43:02.395Z,32.75
2018-12-14T05:45:28.753Z,33.15
2018-12-14T05:48:10.139Z,32.08
2018-12-14T05:50:39.379Z,30.77
2018-12-14T05:53:20.838Z,37.70
2018-12-14T05:55:49.766Z,36.63
2018-12-14T05:58:36.251Z,31.05
2018-12-14T06:01:06.234Z,34.48
2018-12-14T06:03:47.977Z,29.95
2018-12-14T06:06:16.950Z,33.45
2018-12-14T06:08:59.035Z,34.43
2018-12-14T06:11:28.114Z,39.55
2018-12-14T06:14:09.974Z,33.90
2018-12-14T06:16:41.241Z,28.85
2018-12-14T06:19:22.486Z,37.95
2018-12-14T06:21:51.810Z,32.28
2018-12-14T06:24:33.364Z,32.25
2018-12-14T06:27:02.449Z,31.10
2018-12-14T06:29:44.220Z,30.62
2018-12-14T06:32:13.121Z,35.10
2018-12-14T06:34:54.773Z,32.33
2018-12-14T06:37:24.055Z,32.33
2018-12-14T06:40:05.673Z,28.25
2018-12-14T06:42:34.561Z,30.02
2018-12-14T06:45:16.762Z,28.20
2018-12-14T06:47:46.041Z,31.60
2018-12-14T06:50:29.115Z,28.65
2018-12-14T06:52:58.607Z,32.35
2018-12-14T06:55:39.857Z,27.10
2018-12-14T06:58:09.001Z,32.05
2018-12-14T07:00:51.209Z,27.62
2018-12-14T07:03:20.758Z,27.62
2018-12-14T07:06:02.186Z,36.70
2018-12-14T07:08:31.449Z,22.67
2018-12-14T07:11:12.753Z,24.47
2018-12-14T07:13:41.949Z,27.50
2018-12-14T07:16:23.482Z,25.72
2018-12-14T07:19:04.957Z,28.05
2018-12-14T07:21:34.300Z,27.60
2018-12-14T07:24:15.837Z,34.27
2018-12-14T07:26:45.665Z,24.95
2018-12-14T07:29:27.054Z,25.50
2018-12-14T07:31:56.303Z,24.65
2018-12-14T07:34:37.638Z,23.92
2018-12-14T07:37:08.002Z,25.92
2018-12-14T07:39:49.313Z,24.77
2018-12-14T07:42:18.832Z,23.05
2018-12-14T07:45:00.033Z,29.52
2018-12-14T07:47:29.777Z,18.48
2018-12-14T07:50:11.537Z,24.12
2018-12-14T07:52:40.554Z,26.75
2018-12-14T07:55:26.229Z,26.52
2018-12-14T07:57:57.393Z,24.60
2018-12-14T08:00:39.177Z,27.77
2018-12-14T08:03:08.746Z,25.50
2018-12-14T08:05:50.109Z,25.70
2018-12-14T08:08:20.210Z,23.87
2018-12-14T08:11:01.831Z,25.12
2018-12-14T08:13:34.787Z,21.25
2018-12-14T08:16:14.206Z,22.73
2018-12-14T08:18:43.543Z,22.45
2018-12-14T08:21:24.822Z,20.95
2018-12-14T08:23:54.168Z,22.05
2018-12-14T08:26:35.393Z,23.57
2018-12-14T08:29:05.201Z,20.40
2018-12-14T08:31:47.385Z,26.93
2018-12-14T08:34:16.681Z,22.45
2018-12-14T08:36:58.040Z,21.17
2018-12-14T08:39:27.781Z,21.27
2018-12-14T08:42:09.031Z,21.23
2018-12-14T08:44:38.250Z,18.35
2018-12-14T08:47:07.662Z,22.02
2018-12-14T08:49:48.911Z,22.20
2018-12-14T08:52:18.094Z,19.12
2018-12-14T08:54:59.368Z,24.67
2018-12-14T08:57:30.142Z,25.80
2018-12-14T09:00:11.576Z,24.60
2018-12-14T09:02:42.379Z,21.40
2018-12-14T09:05:24.461Z,23.05
2018-12-14T09:07:53.533Z,27.35
2018-12-14T09:10:34.770Z,27.45
2018-12-14T09:13:03.670Z,26.00
2018-12-14T09:15:44.866Z,24.02
2018-12-14T09:18:13.758Z,25.43
2018-12-14T09:21:00.886Z,21.70
2018-12-14T09:23:27.842Z,18.62
2018-12-14T09:26:09.089Z,25.12
2018-12-14T09:28:38.195Z,21.23
2018-12-14T09:31:20.309Z,21.48
2018-12-14T09:33:49.379Z,21.05
2018-12-14T09:36:30.641Z,22.80
2018-12-14T09:38:59.774Z,18.52
2018-12-14T09:41:41.022Z,20.40
2018-12-14T09:44:09.886Z,18.70
2018-12-14T09:46:51.178Z,21.75
2018-12-14T09:49:20.173Z,21.25
2018-12-14T09:52:01.470Z,19.95
2018-12-14T09:54:30.330Z,20.23
2018-12-14T09:57:11.669Z,24.98
2018-12-14T09:59:41.873Z,22.93
2018-12-14T10:02:23.072Z,28.17
2018-12-14T10:04:53.257Z,24.27
2018-12-14T10:07:34.502Z,22.70
2018-12-14T10:10:04.715Z,25.08
2018-12-14T10:12:46.050Z,26.77
2018-12-14T10:15:14.940Z,25.43
2018-12-14T10:17:56.537Z,24.50
2018-12-14T10:20:25.466Z,26.37
2018-12-14T10:23:06.845Z,20.72
2018-12-14T10:25:36.184Z,25.85
2018-12-14T10:28:17.539Z,21.62
2018-12-14T10:30:47.913Z,20.48
2018-12-14T10:33:29.182Z,22.87
2018-12-14T10:35:58.150Z,23.15
2018-12-14T10:38:39.375Z,21.68
2018-12-14T10:41:10.130Z,21.20
2018-12-14T10:43:51.395Z,22.32
2018-12-14T10:46:21.491Z,19.20
2018-12-14T10:49:02.712Z,20.90
2018-12-14T10:51:31.742Z,19.40
2018-12-14T10:54:13.166Z,25.52
2018-12-14T10:56:42.128Z,23.20
2018-12-14T10:59:28.362Z,19.92
2018-12-14T11:01:57.229Z,26.57
2018-12-14T11:04:39.362Z,22.22
2018-12-14T11:07:08.234Z,23.35
2018-12-14T11:09:49.450Z,22.27
2018-12-14T11:12:18.434Z,25.12
2018-12-14T11:14:59.695Z,19.23
2018-12-14T11:17:28.854Z,21.73
2018-12-14T11:20:10.509Z,18.67
2018-12-14T11:22:39.370Z,27.82
2018-12-14T11:25:20.782Z,25.08
2018-12-14T11:27:49.647Z,23.95
2018-12-14T11:30:30.941Z,24.45
2018-12-14T11:32:59.890Z,27.87
2018-12-14T11:35:41.262Z,23.75
2018-12-14T11:38:10.226Z,20.23
2018-12-14T11:40:51.477Z,23.52
2018-12-14T11:43:20.368Z,25.37
2018-12-14T11:46:01.582Z,26.87
2018-12-14T11:48:30.458Z,24.40
2018-12-14T11:51:16.247Z,27.80
2018-12-14T11:53:45.114Z,22.22
2018-12-14T11:56:26.369Z,26.15
2018-12-14T11:58:55.254Z,20.88
2018-12-14T12:01:36.536Z,23.95
2018-12-14T12:04:05.838Z,23.07
2018-12-14T12:06:51.905Z,21.80
2018-12-14T12:09:20.904Z,25.45
2018-12-14T12:12:02.759Z,19.40
2018-12-14T12:17:12.004Z,22.80
2018-12-14T12:19:40.877Z,21.07
2018-12-14T12:22:22.110Z,23.15
2018-12-14T12:24:51.762Z,22.35
2018-12-14T12:27:33.020Z,28.25
2018-12-14T12:30:02.014Z,22.15
2018-12-14T12:32:49.264Z,20.25
2018-12-14T12:35:18.331Z,21.23
2018-12-14T12:37:59.539Z,20.40
2018-12-14T12:40:28.431Z,16.82
2018-12-14T12:43:09.733Z,22.80
2018-12-14T12:45:40.537Z,18.40
2018-12-14T12:48:21.829Z,21.40
2018-12-14T12:50:50.708Z,25.02
2018-12-14T12:53:32.026Z,21.30
2018-12-14T12:56:02.618Z,19.95
2018-12-14T12:58:43.902Z,17.85
2018-12-14T13:01:12.870Z,18.55
2018-12-14T13:03:54.978Z,19.60
2018-12-14T13:06:23.874Z,20.70
2018-12-14T13:09:06.124Z,18.45
2018-12-14T13:11:36.467Z,19.27
2018-12-14T13:14:17.731Z,21.55
2018-12-14T13:16:48.552Z,24.35
2018-12-14T13:19:30.795Z,23.98
2018-12-14T13:21:59.967Z,24.95
2018-12-14T13:24:41.234Z,23.52
2018-12-14T13:27:10.212Z,21.70
2018-12-14T13:29:51.520Z,24.20
2018-12-14T13:32:20.762Z,21.00
2018-12-14T13:35:02.642Z,21.27
2018-12-14T13:37:31.557Z,17.50
2018-12-14T13:40:12.810Z,25.45
2018-12-14T13:42:42.317Z,19.10
2018-12-14T13:45:24.229Z,16.70
2018-12-14T13:47:53.352Z,23.38
2018-12-14T13:50:34.606Z,21.30
2018-12-14T13:53:03.454Z,19.12
2018-12-14T13:55:44.702Z,20.90
2018-12-14T13:58:13.653Z,18.98
2018-12-14T14:00:54.873Z,22.85
2018-12-14T14:03:23.938Z,24.98
2018-12-14T14:06:05.165Z,20.45
2018-12-14T14:08:34.029Z,21.90
2018-12-14T14:11:15.280Z,24.15
2018-12-14T14:13:44.168Z,25.08
2018-12-14T14:16:26.109Z,22.93
2018-12-14T14:18:55.523Z,23.77
2018-12-14T14:21:37.234Z,22.20
2018-12-14T14:24:06.211Z,23.98
2018-12-14T14:26:47.745Z,21.50
2018-12-14T14:29:16.986Z,25.95
2018-12-14T14:31:58.297Z,21.97
2018-12-14T14:34:27.728Z,24.80
2018-12-14T14:37:09.390Z,28.73
2018-12-14T14:39:38.826Z,24.05
2018-12-14T14:42:20.229Z,29.05
2018-12-14T14:44:49.544Z,29.10
2018-12-14T14:47:31.406Z,26.68
2018-12-14T14:50:00.541Z,32.30
2018-12-14T14:52:41.825Z,26.60
2018-12-14T14:55:10.742Z,25.15
2018-12-14T14:57:52.361Z,28.65
2018-12-14T15:00:31.555Z,28.05
2018-12-14T15:03:16.230Z,27.02
2018-12-14T15:05:45.929Z,21.90
2018-12-14T15:08:27.861Z,23.85
2018-12-14T15:10:56.853Z,27.55
2018-12-14T15:13:38.207Z,24.35
2018-12-14T15:16:07.075Z,23.25
2018-12-14T15:18:48.304Z,25.27
2018-12-14T15:21:17.500Z,30.72
2018-12-14T15:23:58.881Z,27.48
2018-12-14T15:26:28.238Z,24.37
2018-12-14T15:29:10.122Z,25.12
2018-12-14T15:31:39.199Z,26.20
2018-12-14T15:34:20.629Z,23.35
2018-12-14T15:36:49.696Z,25.40
2018-12-14T15:39:31.136Z,23.30
2018-12-14T15:42:00.002Z,26.37
2018-12-14T15:44:41.281Z,27.45
2018-12-14T15:47:10.159Z,25.92
2018-12-14T15:49:51.381Z,21.95
2018-12-14T15:52:20.358Z,27.85
2018-12-14T15:55:01.613Z,28.83
2018-12-14T15:57:30.585Z,24.67
2018-12-14T16:00:24.642Z,19.57
2018-12-14T16:02:54.144Z,20.23
2018-12-14T16:05:35.397Z,23.90
2018-12-14T16:08:04.273Z,22.42
2018-12-14T16:10:45.502Z,22.50
2018-12-14T16:13:14.369Z,23.62
2018-12-14T16:15:55.602Z,24.87
2018-12-14T16:18:24.574Z,21.33
2018-12-14T16:21:05.886Z,20.80
2018-12-14T16:23:34.743Z,18.80
2018-12-14T16:26:16.021Z,20.55
2018-12-14T16:28:45.013Z,23.45
2018-12-14T16:31:26.449Z,20.02
2018-12-14T16:33:56.442Z,20.00
2018-12-14T16:36:38.029Z,22.62
2018-12-14T16:39:07.934Z,24.92
2018-12-14T16:41:49.947Z,24.57
2018-12-14T16:44:19.318Z,20.27
2018-12-14T16:47:00.926Z,23.75
2018-12-14T16:49:30.120Z,20.82
2018-12-14T16:52:11.753Z,23.75
2018-12-14T16:54:40.887Z,23.00
2018-12-14T16:57:22.567Z,22.13
2018-12-14T16:59:51.505Z,21.48
2018-12-14T17:02:32.783Z,20.60
2018-12-14T17:05:01.813Z,18.87
2018-12-14T17:07:43.102Z,23.05
2018-12-14T17:10:12.622Z,20.68
2018-12-14T17:12:54.513Z,22.07
2018-12-14T17:15:23.436Z,20.65
2018-12-14T17:18:04.998Z,21.45
2018-12-14T17:20:34.210Z,23.40
2018-12-14T17:23:15.545Z,23.25
2018-12-14T17:25:44.445Z,22.65
2018-12-14T17:28:26.107Z,20.02
2018-12-14T17:30:55.013Z,21.95
2018-12-14T17:33:36.843Z,20.25
2018-12-14T17:36:05.889Z,19.57
2018-12-14T17:38:47.159Z,23.22
2018-12-14T17:41:16.045Z,15.45
2018-12-14T17:43:57.353Z,16.73
2018-12-14T17:46:26.214Z,14.33
2018-12-14T17:49:07.665Z,17.98
2018-12-14T17:51:37.156Z,20.52
2018-12-14T17:54:18.388Z,15.78
2018-12-14T17:56:47.274Z,17.82
2018-12-14T17:59:29.337Z,18.70
2018-12-14T18:01:58.418Z,16.42
2018-12-14T18:04:39.662Z,17.30
2018-12-14T18:07:08.570Z,20.35
2018-12-14T18:09:49.810Z,17.30
2018-12-14T18:12:18.678Z,16.67
2018-12-14T18:14:59.917Z,24.02
2018-12-14T18:17:28.774Z,19.32
2018-12-14T18:20:10.029Z,18.42
2018-12-14T18:22:51.866Z,18.07
2018-12-14T18:25:20.969Z,17.77
2018-12-14T18:28:02.233Z,18.75
2018-12-14T18:30:31.663Z,20.68
2018-12-14T18:33:12.912Z,18.67
2018-12-14T18:35:42.190Z,18.07
2018-12-14T18:38:23.397Z,17.85
2018-12-14T18:40:52.405Z,18.30
2018-12-14T18:43:33.677Z,18.82
2018-12-14T18:46:02.652Z,20.43
2018-12-14T18:48:44.429Z,18.12
2018-12-14T18:51:13.420Z,17.85
2018-12-14T18:53:58.950Z,19.23
2018-12-14T18:56:28.606Z,21.12
2018-12-14T18:59:11.566Z,17.90
2018-12-14T19:01:41.479Z,20.95
2018-12-14T19:04:22.782Z,23.57
2018-12-14T19:06:52.107Z,18.75
2018-12-14T19:09:33.919Z,23.18
2018-12-14T19:12:02.827Z,20.80
2018-12-14T19:14:44.125Z,20.72
2018-12-14T19:17:13.227Z,22.58
2018-12-14T19:19:55.074Z,20.60
2018-12-14T19:22:24.053Z,19.27
2018-12-14T19:25:05.990Z,18.90
2018-12-14T19:27:34.855Z,17.52
2018-12-14T19:30:16.054Z,16.87
2018-12-14T19:32:44.982Z,22.10
2018-12-14T19:35:26.263Z,18.90
2018-12-14T19:37:57.073Z,20.70
2018-12-14T19:40:38.476Z,21.12
2018-12-14T19:43:07.402Z,18.35
2018-12-14T19:45:48.694Z,19.50
2018-12-14T19:48:17.573Z,22.55
2018-12-14T19:50:59.188Z,21.35
2018-12-14T19:53:28.321Z,18.07
2018-12-14T19:56:15.084Z,20.00
2018-12-14T19:58:45.162Z,19.77
2018-12-14T20:01:26.610Z,26.85
2018-12-14T20:03:56.626Z,21.45
2018-12-14T20:06:38.410Z,16.77
2018-12-14T20:09:10.061Z,15.55
2018-12-14T20:11:51.354Z,20.00
2018-12-14T20:14:20.353Z,23.25
2018-12-14T20:17:01.917Z,19.40
2018-12-14T20:19:32.314Z,16.45
2018-12-14T20:22:13.813Z,15.30
2018-12-14T20:24:42.966Z,17.87
2018-12-14T20:27:24.889Z,20.12
2018-12-14T20:29:54.243Z,18.25
2018-12-14T20:32:35.530Z,18.10
2018-12-14T20:36:09.020Z,20.88
2018-12-14T20:38:50.473Z,18.45
2018-12-14T20:41:19.620Z,21.82
2018-12-14T20:44:01.146Z,19.23
2018-12-14T20:46:30.097Z,19.42
2018-12-14T20:49:11.586Z,16.57
2018-12-14T20:51:41.982Z,27.95
2018-12-14T20:54:23.757Z,20.43
2018-12-14T20:56:52.673Z,19.35
2018-12-14T20:59:33.885Z,17.50
2018-12-14T21:02:02.800Z,19.02
2018-12-14T21:04:44.045Z,19.27
2018-12-14T21:07:13.372Z,20.95
2018-12-14T21:09:55.073Z,22.10
2018-12-14T21:12:24.047Z,20.32
2018-12-14T21:15:07.593Z,17.42
2018-12-14T21:17:36.589Z,23.18
2018-12-14T21:20:17.874Z,21.23
2018-12-14T21:22:46.911Z,22.90
2018-12-14T21:25:28.230Z,17.90
2018-12-14T21:27:57.202Z,21.30
2018-12-14T21:30:38.409Z,20.68
2018-12-14T21:33:08.098Z,24.52
2018-12-14T21:35:49.311Z,20.12
2018-12-14T21:38:18.186Z,21.70
2018-12-14T21:40:59.396Z,19.80
2018-12-14T21:43:28.270Z,19.62
2018-12-14T21:46:09.500Z,21.15
2018-12-14T21:48:38.394Z,21.57
2018-12-14T21:51:19.611Z,21.20
2018-12-14T21:53:48.601Z,24.07
2018-12-14T21:56:29.847Z,20.62
2018-12-14T21:58:58.801Z,20.82
2018-12-14T22:01:40.082Z,19.12
2018-12-14T22:04:09.889Z,22.45
2018-12-14T22:06:51.168Z,23.27
2018-12-14T22:09:20.758Z,20.60
2018-12-14T22:12:02.540Z,22.32
2018-12-14T22:14:31.446Z,21.00
2018-12-14T22:17:12.632Z,26.27
2018-12-14T22:19:41.506Z,22.90
2018-12-14T22:22:22.719Z,23.75
2018-12-14T22:24:51.733Z,23.65
2018-12-14T22:27:32.998Z,19.82
2018-12-14T22:30:02.165Z,18.15
2018-12-14T22:32:43.385Z,23.18
2018-12-14T22:35:12.381Z,20.35
2018-12-14T22:37:53.946Z,20.72
2018-12-14T22:40:22.880Z,24.30
2018-12-14T22:43:04.730Z,19.57
2018-12-14T22:45:33.654Z,24.32
2018-12-14T22:48:14.866Z,21.33
2018-12-14T22:50:43.956Z,21.20
2018-12-14T22:53:25.295Z,22.70
2018-12-14T22:55:54.462Z,20.37
2018-12-14T22:58:35.696Z,20.70
2018-12-14T23:01:04.854Z,27.22
2018-12-14T23:03:46.206Z,20.57
2018-12-14T23:06:15.265Z,23.85
2018-12-14T23:08:56.801Z,24.63
2018-12-14T23:11:26.289Z,23.80
2018-12-14T23:14:07.562Z,21.15
2018-12-14T23:16:37.133Z,23.73
2018-12-14T23:19:18.313Z,29.85
2018-12-14T23:21:47.076Z,22.60
2018-12-14T23:24:28.485Z,25.60
2018-12-14T23:26:57.366Z,31.70
2018-12-14T23:29:38.670Z,25.97
2018-12-14T23:32:07.717Z,23.95
2018-12-14T23:34:48.981Z,31.00
2018-12-14T23:37:18.396Z,28.02
2018-12-14T23:39:59.577Z,24.80
2018-12-14T23:42:28.568Z,26.65
2018-12-14T23:45:10.105Z,25.12
2018-12-14T23:47:39.029Z,28.25
2018-12-14T23:50:20.283Z,24.43
2018-12-14T23:52:49.184Z,32.60
2018-12-14T23:55:30.581Z,27.15
2018-12-14T23:57:59.453Z,28.83
